Aeroporto :
LOGIN :

Iscrizione | Disclaimer

   EN    FR    IT 

 










Sommario :    VFR   VFR Marginale   IFR   IFR Intensivo   IFR Molto Intensivo
Visibilità : 
Base nubi : 
>= 8 km
>= 3000ft
5 / 8 km
1000 / 3000 ft
1500m / 5 km
500 / 1000 ft
800 / 1500m
200 / 500 ft
< 800m
< 200 ft
Simboli :   Temporali  Nebbia  Neve Forte  Precipitazioni Forti  Vento > 20 kt
SIGMETs :   Varie  Temporali  Ghiacco  Turbolenza  Onda orograficha  Ceneri Vulcaniche







- Altitudine del aeroporto : 24 ft
- Codice IATA : FAO


LPFR - Faro

ULTIMO METAR :
  • 220700Z 08005G15KT 040V110 9999 FEW025 18/15 Q1019

METARs OBSOLETI :
  • 220630Z 07005KT 040V100 9999 FEW025 18/15 Q1018
  • 220600Z 07006KT 030V110 9999 SCT030 19/16 Q1018
  • 220530Z 05003KT 020V100 9999 BKN030 18/15 Q1018
  • 220500Z 03005KT 9999 SCT030 18/15 Q1018
  • 220430Z 02004KT 9999 SCT030 18/15 Q1018

TAF TAF LPFR
Valido dal 22 a 06 ore il 23 a 06 ore UTC


220500Z 2206/2306 06007KT 9999 SCT030
PROB30
TEMPO 2206/2209 5000 -RADZ BR SCT006 BKN012
BECMG 2209/2211 11012KT BKN020
BECMG 2212/2214 CAVOK
BECMG 2217/2219 VRB03KT
BECMG 2223/2301 03005KT 9999 FEW012
PROB30
TEMPO 2301/2306 FEW004 BKN012
Nessun NOTAM noto per questo aeroporto.



MetMap, La meteo Aeronautica in un colpo d'occhio ! - Copyright ORBIFLY Dicembre 2007 - Disclaimer

ORBIFLY MET'MAP TEAM :

Programmazione e sviluppo : Alexandra Zaïnal
Concezione e sviluppo : Baudouin d'Aumeries
Co-Programmazione e sviluppo : Marc-Olivier Méhu
Supporto tecnico e logistico : Manuel Goepfert
Aiuto per la traduzione : Arnaldo La Scala

Contatto : metmap@orbifly.com




FONTI E CREDITI :

   NOAA